Time;durP1;ratioP1;P1;durP2;ratioP2;P2;SDS_P1;SDS_P2;PMS_P1;PMS_P2;Temp;Humidity;BMP_temperature;BMP_pressure;BME280_temperature;BME280_humidity;BME280_pressure;Samples;Min_cycle;Max_cycle;Signal;HPM_P1;HPM_P2
2021/03/18 00:01:54;;;;;;;6.13;4.27;;;5.90;80.70;;;;;;5095793;28;20432;-71
2021/03/18 00:04:20;;;;;;;6.77;4.40;;;5.90;81.00;;;;;;5095410;28;20517;-71
2021/03/18 00:06:47;;;;;;;5.67;4.90;;;5.90;81.30;;;;;;5095432;28;20451;-71
2021/03/18 00:09:15;;;;;;;6.60;4.90;;;5.90;81.40;;;;;;5095254;28;20479;-71
2021/03/18 00:11:43;;;;;;;6.00;4.20;;;5.80;81.20;;;;;;5095783;28;20440;-71
2021/03/18 00:14:12;;;;;;;4.13;3.57;;;5.80;81.30;;;;;;5095592;28;20462;-71
2021/03/18 00:16:39;;;;;;;5.27;3.80;;;5.80;81.30;;;;;;5095503;28;20482;-71
2021/03/18 00:19:05;;;;;;;6.83;4.43;;;5.80;81.50;;;;;;5095402;28;20444;-71
2021/03/18 00:21:32;;;;;;;8.60;3.70;;;5.80;81.50;;;;;;5095031;28;21000;-71
2021/03/18 00:23:58;;;;;;;4.70;3.50;;;5.80;81.40;;;;;;5095337;28;20820;-71
2021/03/18 00:26:26;;;;;;;6.00;3.23;;;5.80;81.30;;;;;;5095239;28;20443;-71
2021/03/18 00:28:52;;;;;;;5.80;4.20;;;5.80;81.20;;;;;;5095137;28;20473;-71
2021/03/18 00:31:21;;;;;;;5.90;4.00;;;5.70;81.10;;;;;;5095114;28;20521;-71
2021/03/18 00:33:48;;;;;;;5.87;4.30;;;5.70;81.00;;;;;;5095164;28;20443;-71
2021/03/18 00:36:14;;;;;;;5.40;3.60;;;5.70;81.20;;;;;;5095085;28;20444;-71
2021/03/18 00:38:40;;;;;;;4.87;3.30;;;5.70;81.00;;;;;;5094718;28;20971;-71
2021/03/18 00:41:10;;;;;;;6.40;3.87;;;5.60;81.00;;;;;;5094865;28;21027;-72
2021/03/18 00:43:36;;;;;;;6.93;3.90;;;5.60;81.40;;;;;;5094949;28;20444;-71
2021/03/18 00:46:03;;;;;;;5.43;4.77;;;5.60;81.50;;;;;;5094917;28;20447;-71
2021/03/18 00:48:31;;;;;;;8.80;4.50;;;5.50;81.30;;;;;;5094823;28;20493;-71
2021/03/18 00:51:00;;;;;;;3.93;3.43;;;5.60;81.60;;;;;;5094624;28;20536;-71
2021/03/18 00:53:30;;;;;;;3.97;3.60;;;5.50;81.30;;;;;;5094742;28;20448;-72
2021/03/18 00:55:56;;;;;;;4.50;4.10;;;5.50;81.10;;;;;;5094704;28;20424;-71
2021/03/18 00:58:23;;;;;;;4.40;3.87;;;5.40;80.90;;;;;;5095096;28;20447;-71
2021/03/18 01:00:51;;;;;;;6.10;3.77;;;5.40;80.70;;;;;;5094463;28;20460;-71
2021/03/18 01:03:18;;;;;;;5.30;4.50;;;5.30;80.60;;;;;;5094554;28;20956;-71
2021/03/18 01:05:48;;;;;;;5.93;4.00;;;5.30;81.00;;;;;;5094306;28;20452;-71
2021/03/18 01:08:16;;;;;;;5.93;4.53;;;5.30;81.10;;;;;;5094166;28;20965;-71
2021/03/18 01:10:45;;;;;;;7.03;5.13;;;5.20;81.00;;;;;;5094273;28;20487;-71
2021/03/18 01:13:17;;;;;;;8.20;5.13;;;5.20;80.80;;;;;;5094371;28;20460;-71
2021/03/18 01:15:43;;;;;;;6.40;4.40;;;5.20;81.60;;;;;;5094399;28;20440;-71
2021/03/18 01:18:09;;;;;;;5.07;4.50;;;5.20;80.80;;;;;;5093961;28;20443;-71
2021/03/18 01:20:36;;;;;;;5.50;5.00;;;5.20;81.00;;;;;;5093596;28;20573;-71
2021/03/18 01:23:03;;;;;;;8.27;5.80;;;5.20;81.70;;;;;;5094229;28;20451;-71
2021/03/18 01:25:29;;;;;;;6.80;5.43;;;5.20;81.20;;;;;;5093875;28;20812;-71
2021/03/18 01:27:55;;;;;;;8.30;4.97;;;5.20;81.60;;;;;;5094104;28;20424;-71
2021/03/18 01:30:24;;;;;;;6.00;4.73;;;5.10;81.30;;;;;;5093917;28;20483;-71
2021/03/18 01:32:50;;;;;;;8.03;5.40;;;5.10;81.40;;;;;;5094046;28;20447;-71
2021/03/18 01:35:19;;;;;;;6.50;5.80;;;5.10;81.40;;;;;;5093986;28;20926;-71
2021/03/18 01:37:46;;;;;;;5.53;4.90;;;5.00;81.40;;;;;;5093967;28;20446;-71
2021/03/18 01:40:18;;;;;;;8.73;5.23;;;5.00;81.40;;;;;;5093542;28;20467;-71
2021/03/18 01:42:45;;;;;;;7.50;4.77;;;5.00;81.50;;;;;;5093925;28;20435;-71
2021/03/18 01:45:12;;;;;;;10.30;5.30;;;5.00;82.50;;;;;;5093800;28;20440;-71
2021/03/18 01:47:40;;;;;;;6.60;5.23;;;5.00;82.10;;;;;;5093791;28;20485;-71
2021/03/18 01:50:09;;;;;;;7.83;5.43;;;5.00;82.60;;;;;;5093640;28;20487;-71
2021/03/18 01:52:36;;;;;;;6.60;5.47;;;5.00;82.90;;;;;;5093723;28;20451;-71
2021/03/18 01:55:04;;;;;;;5.97;5.30;;;5.00;83.10;;;;;;5093758;28;20451;-71
2021/03/18 01:57:31;;;;;;;6.93;5.60;;;5.00;82.90;;;;;;5093689;28;20814;-71
2021/03/18 01:59:57;;;;;;;7.40;5.87;;;5.00;82.90;;;;;;5093636;28;20471;-71
2021/03/18 02:02:24;;;;;;;9.37;6.20;;;5.00;83.00;;;;;;5093644;28;20628;-71
2021/03/18 02:04:50;;;;;;;6.73;5.70;;;4.90;82.80;;;;;;5093648;28;20439;-71
2021/03/18 02:07:16;;;;;;;7.57;5.80;;;4.90;83.10;;;;;;5093464;28;20459;-71
2021/03/18 02:09:43;;;;;;;9.00;6.10;;;4.90;83.10;;;;;;5093457;28;20483;-71
2021/03/18 02:12:09;;;;;;;7.83;6.43;;;4.90;82.80;;;;;;5093531;28;20443;-71
2021/03/18 02:14:37;;;;;;;7.47;6.07;;;4.80;82.20;;;;;;5093538;28;20489;-71
2021/03/18 02:17:06;;;;;;;7.53;5.80;;;4.70;81.80;;;;;;5093532;28;20432;-71
2021/03/18 02:19:48;;;;;;;7.47;6.23;;;4.70;81.70;;;;;;5093060;28;21004;-71
2021/03/18 02:22:46;;;;;;;10.93;6.53;;;4.60;82.20;;;;;;5093447;28;20501;-71
2021/03/18 02:25:19;;;;;;;6.10;5.50;;;4.60;83.10;;;;;;5093445;28;20439;-71
2021/03/18 02:28:19;;;;;;;8.90;5.60;;;4.60;83.70;;;;;;5093129;28;20906;-71
2021/03/18 02:30:56;;;;;;;7.60;6.33;;;4.70;84.30;;;;;;5093259;28;20537;-71
2021/03/18 02:34:09;;;;;;;7.97;6.90;;;4.70;84.80;;;;;;5094374;28;20790;-71
2021/03/18 02:36:40;;;;;;;6.80;6.10;;;4.70;84.90;;;;;;5097676;28;20420;-71
2021/03/18 02:39:10;;;;;;;9.17;6.07;;;4.70;85.20;;;;;;5097417;28;20420;-71
2021/03/18 02:41:42;;;;;;;6.50;5.87;;;4.70;85.20;;;;;;5097197;28;20462;-71
2021/03/18 02:44:12;;;;;;;6.67;5.97;;;4.70;85.00;;;;;;5097336;28;20431;-71
2021/03/18 02:46:40;;;;;;;7.13;6.07;;;4.80;84.90;;;;;;5097199;28;20436;-71
2021/03/18 02:49:07;;;;;;;7.90;5.30;;;4.80;84.70;;;;;;5097093;28;20446;-71
2021/03/18 02:51:37;;;;;;;7.17;5.80;;;4.80;84.70;;;;;;5097305;28;20486;-71
2021/03/18 02:54:07;;;;;;;6.63;6.03;;;4.80;84.70;;;;;;5097064;28;20540;-71
2021/03/18 02:56:35;;;;;;;8.10;6.57;;;4.80;84.50;;;;;;5096983;28;20447;-71
2021/03/18 02:59:03;;;;;;;6.87;5.70;;;4.80;84.60;;;;;;5096702;28;20942;-71
2021/03/18 03:01:31;;;;;;;6.10;5.50;;;4.80;85.40;;;;;;5096855;28;20520;-71
2021/03/18 03:03:58;;;;;;;5.97;5.40;;;4.80;84.70;;;;;;5096884;28;20480;-71
2021/03/18 03:06:26;;;;;;;7.63;6.20;;;4.80;84.90;;;;;;5096685;28;20504;-71
2021/03/18 03:08:54;;;;;;;6.90;5.40;;;4.80;85.00;;;;;;5096805;28;20439;-71
2021/03/18 03:11:22;;;;;;;6.57;5.87;;;4.80;85.00;;;;;;5096657;28;20482;-71
2021/03/18 03:13:50;;;;;;;6.83;6.13;;;4.80;84.90;;;;;;5096423;28;20451;-71
2021/03/18 03:16:19;;;;;;;5.63;5.13;;;4.80;84.70;;;;;;5096680;28;20447;-71
2021/03/18 03:18:47;;;;;;;6.90;6.20;;;4.80;84.60;;;;;;5096354;28;20435;-71
2021/03/18 03:21:15;;;;;;;8.60;5.93;;;4.80;84.60;;;;;;5097401;28;20460;-71
2021/03/18 03:23:43;;;;;;;8.53;5.80;;;4.70;84.40;;;;;;5096515;28;20468;-71
2021/03/18 03:26:12;;;;;;;6.40;5.80;;;4.70;84.10;;;;;;5096474;28;20440;-71
2021/03/18 03:28:40;;;;;;;9.93;6.60;;;4.50;83.80;;;;;;5096370;28;20443;-71
2021/03/18 03:31:06;;;;;;;7.10;6.07;;;4.40;83.90;;;;;;5096220;28;20524;-71
2021/03/18 03:33:32;;;;;;;10.87;6.93;;;4.50;84.80;;;;;;5096312;28;20446;-72
2021/03/18 03:36:00;;;;;;;8.90;6.50;;;4.40;85.50;;;;;;5096296;28;20487;-71
2021/03/18 03:38:27;;;;;;;8.97;6.17;;;4.40;85.60;;;;;;5096253;28;20432;-71
2021/03/18 03:40:54;;;;;;;7.73;6.23;;;4.40;85.60;;;;;;5096161;28;20460;-71
2021/03/18 03:43:21;;;;;;;7.10;5.53;;;4.40;86.60;;;;;;5096021;28;20470;-71
2021/03/18 03:45:48;;;;;;;8.73;6.13;;;4.40;85.80;;;;;;5095732;28;20454;-71
2021/03/18 03:48:14;;;;;;;10.20;6.90;;;4.40;85.80;;;;;;5096067;28;20450;-71
2021/03/18 03:50:41;;;;;;;8.83;6.47;;;4.30;85.80;;;;;;5096019;28;20509;-71
2021/03/18 03:53:14;;;;;;;13.03;7.13;;;4.30;86.30;;;;;;5096109;28;20428;-71
2021/03/18 03:55:52;;;;;;;9.47;6.47;;;4.40;86.90;;;;;;5096034;28;20431;-71
2021/03/18 03:58:32;;;;;;;7.40;6.70;;;4.40;86.70;;;;;;5095989;28;20428;-71
2021/03/18 04:01:02;;;;;;;8.53;6.30;;;4.40;86.50;;;;;;5095781;28;20496;-71
2021/03/18 04:03:30;;;;;;;8.43;7.10;;;4.40;86.40;;;;;;5095873;28;20462;-71
2021/03/18 04:05:59;;;;;;;11.33;6.50;;;4.40;86.50;;;;;;5095566;28;20452;-71
2021/03/18 04:08:27;;;;;;;9.80;6.87;;;4.40;86.50;;;;;;5095702;28;20443;-71
2021/03/18 04:10:55;;;;;;;8.70;6.77;;;4.40;86.60;;;;;;5095908;28;20487;-71
2021/03/18 04:13:24;;;;;;;7.90;7.10;;;4.40;86.90;;;;;;5095531;28;20447;-71
2021/03/18 04:15:51;;;;;;;7.00;6.10;;;4.40;87.00;;;;;;5095503;28;20444;-71
2021/03/18 04:18:19;;;;;;;10.73;7.40;;;4.40;87.40;;;;;;5095453;28;20443;-71
2021/03/18 04:20:47;;;;;;;9.10;7.03;;;4.40;87.50;;;;;;5095333;28;20463;-71
2021/03/18 04:23:13;;;;;;;9.00;6.37;;;4.50;87.70;;;;;;5095363;28;20442;-71
2021/03/18 04:25:41;;;;;;;11.30;6.63;;;4.50;87.90;;;;;;5094996;28;20818;-71
2021/03/18 04:28:09;;;;;;;7.20;6.50;;;4.50;88.10;;;;;;5095832;28;20440;-71
2021/03/18 04:30:37;;;;;;;8.80;6.47;;;4.50;88.00;;;;;;5095070;28;20483;-71
2021/03/18 04:33:04;;;;;;;8.07;7.17;;;4.50;88.00;;;;;;5095179;28;20491;-71
2021/03/18 04:35:31;;;;;;;10.53;7.20;;;4.50;88.00;;;;;;5095081;28;20442;-71
2021/03/18 04:37:59;;;;;;;8.50;6.90;;;4.60;88.40;;;;;;5094752;28;20942;-71
2021/03/18 04:40:26;;;;;;;9.80;6.97;;;4.50;88.30;;;;;;5094944;28;20525;-71
2021/03/18 04:42:53;;;;;;;9.43;7.27;;;4.60;88.60;;;;;;5094964;28;20444;-71
2021/03/18 04:45:22;;;;;;;9.03;8.03;;;4.60;88.70;;;;;;5095089;28;20444;-71
2021/03/18 04:47:50;;;;;;;8.60;7.40;;;4.60;88.60;;;;;;5094878;28;20442;-71
2021/03/18 04:50:20;;;;;;;9.43;7.80;;;4.60;88.60;;;;;;5094692;28;20537;-71
2021/03/18 04:52:47;;;;;;;10.40;6.93;;;4.60;88.80;;;;;;5094795;28;20439;-72
2021/03/18 04:55:15;;;;;;;11.90;8.10;;;4.60;88.90;;;;;;5094287;28;20443;-72
2021/03/18 04:57:45;;;;;;;9.30;8.30;;;4.50;88.70;;;;;;5094291;28;20443;-72
2021/03/18 05:00:13;;;;;;;8.83;7.50;;;4.40;88.70;;;;;;5094587;28;20558;-72
2021/03/18 05:02:42;;;;;;;10.87;7.60;;;4.40;89.10;;;;;;5094581;28;20443;-72
2021/03/18 05:05:13;;;;;;;9.87;7.73;;;4.40;89.30;;;;;;5094383;28;20450;-72
2021/03/18 05:07:40;;;;;;;12.53;7.90;;;4.50;89.60;;;;;;5094554;28;20435;-72
2021/03/18 05:10:08;;;;;;;12.97;7.77;;;4.40;89.60;;;;;;5094308;28;20490;-72
2021/03/18 05:12:34;;;;;;;16.40;8.10;;;4.50;89.90;;;;;;5094322;28;20474;-72
2021/03/18 05:15:01;;;;;;;12.63;8.37;;;4.50;90.10;;;;;;5094081;28;20914;-72
2021/03/18 05:17:28;;;;;;;10.47;7.63;;;4.50;90.10;;;;;;5093971;28;20968;-72
2021/03/18 05:19:54;;;;;;;12.23;7.83;;;4.50;90.00;;;;;;5094160;28;20463;-72
2021/03/18 05:22:22;;;;;;;11.20;8.47;;;4.60;90.00;;;;;;5094218;28;20552;-72
2021/03/18 05:24:49;;;;;;;14.90;7.20;;;4.50;90.00;;;;;;5094180;28;20792;-72
2021/03/18 05:27:15;;;;;;;9.70;7.90;;;4.50;90.00;;;;;;5093776;28;20462;-72
2021/03/18 05:29:41;;;;;;;8.97;7.40;;;4.50;89.90;;;;;;5093990;28;20540;-72
2021/03/18 05:32:08;;;;;;;15.73;8.90;;;4.40;89.70;;;;;;5094071;28;20447;-72
2021/03/18 05:34:34;;;;;;;10.23;8.10;;;4.40;90.00;;;;;;5094047;28;20444;-72
2021/03/18 05:37:00;;;;;;;9.43;8.40;;;4.30;90.10;;;;;;5093954;28;20439;-72
2021/03/18 05:39:27;;;;;;;12.20;8.03;;;4.30;90.10;;;;;;5093893;28;20803;-73
2021/03/18 05:41:54;;;;;;;9.10;7.87;;;4.30;90.20;;;;;;5093617;28;20446;-72
2021/03/18 05:44:21;;;;;;;11.83;8.67;;;4.30;90.30;;;;;;5093942;28;20435;-72
2021/03/18 05:46:47;;;;;;;11.63;8.97;;;4.30;90.30;;;;;;5093826;28;20453;-72
2021/03/18 05:49:14;;;;;;;15.20;7.70;;;4.40;90.30;;;;;;5093689;28;20837;-72
2021/03/18 05:51:43;;;;;;;11.80;8.57;;;4.40;90.20;;;;;;5093742;28;20465;-71
2021/03/18 05:54:10;;;;;;;10.77;7.90;;;4.40;90.10;;;;;;5093785;28;20447;-71
2021/03/18 05:56:39;;;;;;;10.13;8.00;;;4.40;90.00;;;;;;5093766;28;20480;-71
2021/03/18 05:59:05;;;;;;;15.80;9.10;;;4.30;90.00;;;;;;5093372;28;20794;-72
2021/03/18 06:01:33;;;;;;;8.90;7.87;;;4.30;90.20;;;;;;5093295;28;20977;-71
2021/03/18 06:04:01;;;;;;;9.57;8.30;;;4.40;90.10;;;;;;5093613;28;20447;-71
2021/03/18 06:06:27;;;;;;;9.50;8.20;;;4.30;90.10;;;;;;5093087;28;20458;-71
2021/03/18 06:08:53;;;;;;;9.53;8.20;;;4.30;90.20;;;;;;5093435;28;20449;-71
2021/03/18 06:11:20;;;;;;;15.93;9.00;;;4.20;90.30;;;;;;5093411;28;20498;-71
2021/03/18 06:13:47;;;;;;;11.60;9.60;;;4.20;90.50;;;;;;5093994;28;20529;-71
2021/03/18 06:16:13;;;;;;;11.60;9.67;;;4.10;90.60;;;;;;5093593;28;20429;-71
2021/03/18 06:18:40;;;;;;;14.20;9.40;;;4.10;90.70;;;;;;5093149;28;20940;-71
2021/03/18 06:21:06;;;;;;;13.27;9.13;;;4.10;90.80;;;;;;5093394;28;20520;-71
2021/03/18 06:23:34;;;;;;;24.03;11.13;;;4.10;90.80;;;;;;5093432;28;20447;-71
2021/03/18 06:26:01;;;;;;;11.53;9.20;;;4.20;90.90;;;;;;5093415;28;20458;-71
2021/03/18 06:28:28;;;;;;;17.80;10.00;;;4.20;90.80;;;;;;5093384;28;20449;-71
2021/03/18 06:31:01;;;;;;;14.27;10.37;;;4.10;91.30;;;;;;5092907;28;20487;-72
2021/03/18 06:33:30;;;;;;;11.13;10.03;;;4.20;91.00;;;;;;5093395;28;20790;-71
2021/03/18 06:35:56;;;;;;;13.87;10.90;;;4.30;90.90;;;;;;5093270;28;20499;-71
2021/03/18 06:38:27;;;;;;;13.10;9.67;;;4.30;90.90;;;;;;5093327;28;20491;-71
2021/03/18 06:40:53;;;;;;;13.30;10.23;;;4.30;90.90;;;;;;5093207;28;20478;-71
2021/03/18 06:43:35;;;;;;;17.10;9.93;;;4.30;90.80;;;;;;5093312;28;20427;-71
2021/03/18 06:46:18;;;;;;;16.47;10.10;;;4.40;90.80;;;;;;5093271;28;20426;-71
2021/03/18 06:48:45;;;;;;;12.63;9.17;;;4.40;90.70;;;;;;5093458;28;20431;-72
2021/03/18 06:51:23;;;;;;;14.67;10.43;;;4.50;90.70;;;;;;5093079;28;20480;-71
2021/03/18 06:53:50;;;;;;;14.10;9.03;;;4.50;90.50;;;;;;5093215;28;20479;-71
2021/03/18 06:56:22;;;;;;;13.00;9.40;;;4.50;90.50;;;;;;5093146;28;20447;-71
2021/03/18 06:58:49;;;;;;;13.87;9.60;;;4.40;90.50;;;;;;5093155;28;20428;-71
2021/03/18 07:01:22;;;;;;;10.60;9.27;;;4.40;90.70;;;;;;5092963;28;20462;-71
2021/03/18 07:03:48;;;;;;;10.53;9.17;;;4.40;90.80;;;;;;5092772;28;20428;-71
2021/03/18 07:06:25;;;;;;;14.77;10.30;;;4.40;90.90;;;;;;5092883;28;20458;-73
2021/03/18 07:09:02;;;;;;;14.07;10.57;;;4.30;91.10;;;;;;5093054;28;20450;-72
2021/03/18 07:11:28;;;;;;;12.83;9.77;;;4.30;91.30;;;;;;5092755;28;20849;-74
2021/03/18 07:13:54;;;;;;;15.10;10.17;;;4.40;91.30;;;;;;5092614;28;20453;-73
2021/03/18 07:16:21;;;;;;;13.10;10.27;;;4.50;91.40;;;;;;5092845;28;20439;-72
2021/03/18 07:18:56;;;;;;;20.17;10.93;;;4.50;91.40;;;;;;5093109;28;20455;-73
2021/03/18 07:21:34;;;;;;;11.30;9.63;;;4.50;91.40;;;;;;5096464;28;20492;-72
2021/03/18 07:24:01;;;;;;;14.13;10.10;;;4.60;91.40;;;;;;5096455;28;20431;-74
2021/03/18 07:26:27;;;;;;;14.07;10.40;;;4.70;91.20;;;;;;5096384;28;20443;-72
2021/03/18 07:29:11;;;;;;;16.43;9.40;;;4.70;91.00;;;;;;5095997;28;20447;-71
2021/03/18 07:31:39;;;;;;;13.93;11.03;;;4.80;91.10;;;;;;5096195;28;20486;-70
2021/03/18 07:34:06;;;;;;;16.23;9.87;;;4.80;90.70;;;;;;5096302;28;20443;-70
2021/03/18 07:36:32;;;;;;;14.37;9.70;;;4.90;91.00;;;;;;5096187;28;20450;-70
2021/03/18 07:38:59;;;;;;;19.27;10.93;;;4.90;90.90;;;;;;5095877;28;20451;-70
2021/03/18 07:41:25;;;;;;;16.23;10.60;;;5.00;90.80;;;;;;5096028;28;20470;-71
2021/03/18 07:43:53;;;;;;;19.97;12.07;;;5.00;90.80;;;;;;5096142;28;20454;-70
2021/03/18 07:46:20;;;;;;;15.97;11.80;;;5.10;90.90;;;;;;5096071;28;20424;-71
2021/03/18 07:48:52;;;;;;;16.57;13.30;;;5.20;90.80;;;;;;5096090;28;20428;-71
2021/03/18 07:51:20;;;;;;;19.20;14.10;;;5.20;90.80;;;;;;5095921;28;20490;-71
2021/03/18 07:53:49;;;;;;;21.83;14.17;;;5.20;90.90;;;;;;5095889;28;20436;-71
2021/03/18 07:56:16;;;;;;;20.50;15.27;;;5.20;90.90;;;;;;5096237;28;20428;-71
2021/03/18 07:58:44;;;;;;;19.33;14.50;;;5.30;90.90;;;;;;5095929;28;20427;-71
2021/03/18 08:01:36;;;;;;;20.20;15.47;;;5.40;90.70;;;;;;5096974;28;20490;-71
2021/03/18 08:04:05;;;;;;;19.13;15.20;;;5.40;90.10;;;;;;5095769;28;20439;-71
2021/03/18 08:06:52;;;;;;;22.20;16.50;;;5.50;90.10;;;;;;5095356;28;20987;-71
2021/03/18 08:09:57;;;;;;;19.23;15.73;;;5.60;90.20;;;;;;5095583;28;20489;-71
2021/03/18 08:12:43;;;;;;;23.47;15.53;;;5.60;90.20;;;;;;5092943;28;20451;-71
2021/03/18 08:15:27;;;;;;;18.70;13.77;;;5.60;90.30;;;;;;5095504;28;20439;-71
2021/03/18 08:17:55;;;;;;;24.70;15.47;;;5.70;90.50;;;;;;5095582;28;20428;-71
2021/03/18 08:21:03;;;;;;;21.30;16.17;;;5.60;90.00;;;;;;5095116;28;20491;-71
2021/03/18 08:23:45;;;;;;;22.33;14.53;;;5.80;90.30;;;;;;5095203;28;20432;-71
2021/03/18 08:26:18;;;;;;;15.50;13.90;;;5.80;90.20;;;;;;5095055;28;20429;-71
2021/03/18 08:28:47;;;;;;;18.80;15.00;;;5.80;90.20;;;;;;5095024;28;20428;-71
2021/03/18 08:31:15;;;;;;;18.60;14.87;;;6.00;90.40;;;;;;5095040;28;20566;-71
2021/03/18 08:33:46;;;;;;;19.13;14.77;;;6.00;90.00;;;;;;5094929;28;20970;-71
2021/03/18 08:36:24;;;;;;;19.70;13.83;;;6.20;90.00;;;;;;5094846;28;20428;-71
2021/03/18 08:38:52;;;;;;;16.80;14.33;;;6.30;89.20;;;;;;5095163;28;20427;-71
2021/03/18 08:41:37;;;;;;;15.77;12.30;;;6.50;88.50;;;;;;5094977;28;20460;-71
2021/03/18 08:44:20;;;;;;;15.60;12.47;;;6.50;86.70;;;;;;5095366;28;20428;-71
2021/03/18 08:46:55;;;;;;;15.00;12.67;;;6.30;86.90;;;;;;5094710;28;20800;-71
2021/03/18 08:49:30;;;;;;;14.00;12.07;;;6.50;88.00;;;;;;5094811;28;20475;-71
2021/03/18 08:51:59;;;;;;;17.80;13.93;;;6.60;87.80;;;;;;5094808;28;20811;-71
2021/03/18 08:54:50;;;;;;;20.00;13.80;;;6.70;87.40;;;;;;5094935;28;20462;-71
2021/03/18 08:57:31;;;;;;;14.97;11.50;;;6.70;86.10;;;;;;5094802;28;20435;-71
2021/03/18 09:00:00;;;;;;;17.13;12.10;;;6.80;86.50;;;;;;5095303;28;20604;-71
2021/03/18 09:02:31;;;;;;;15.60;12.50;;;6.80;86.00;;;;;;5094671;28;20424;-71
2021/03/18 09:04:59;;;;;;;19.40;13.20;;;7.00;86.50;;;;;;5094727;28;20438;-71
2021/03/18 09:07:28;;;;;;;22.77;14.77;;;7.20;86.70;;;;;;5094570;28;20435;-71
2021/03/18 09:10:03;;;;;;;19.37;13.80;;;7.40;86.20;;;;;;5094383;28;20483;-71
2021/03/18 09:12:41;;;;;;;17.00;12.37;;;7.60;84.20;;;;;;5094818;28;20447;-71
2021/03/18 09:15:23;;;;;;;25.63;12.93;;;7.60;83.20;;;;;;5094424;28;20427;-71
2021/03/18 09:17:51;;;;;;;24.70;14.30;;;7.60;82.30;;;;;;5094109;28;20428;-71
2021/03/18 09:20:20;;;;;;;18.00;13.63;;;7.50;83.20;;;;;;5094221;28;20468;-71
2021/03/18 09:22:47;;;;;;;18.83;13.50;;;7.50;84.20;;;;;;5094269;28;20443;-71
2021/03/18 09:25:15;;;;;;;18.10;13.33;;;7.40;84.30;;;;;;5094240;28;20916;-71
2021/03/18 09:27:44;;;;;;;22.83;13.80;;;7.40;84.50;;;;;;5094229;28;20428;-71
2021/03/18 09:30:16;;;;;;;18.10;14.80;;;7.30;84.50;;;;;;5094077;28;20491;-71
2021/03/18 09:32:43;;;;;;;17.60;14.07;;;7.30;84.00;;;;;;5094839;28;20439;-71
2021/03/18 09:35:11;;;;;;;19.20;13.87;;;7.40;84.90;;;;;;5094470;28;20485;-71
2021/03/18 09:37:38;;;;;;;20.60;15.20;;;7.40;84.30;;;;;;5094010;28;20905;-71
2021/03/18 09:40:07;;;;;;;21.77;13.10;;;7.30;84.90;;;;;;5093714;28;20463;-71
2021/03/18 09:42:34;;;;;;;24.67;14.47;;;7.30;84.80;;;;;;5093546;28;20465;-71
2021/03/18 09:45:00;;;;;;;20.10;14.53;;;7.30;84.70;;;;;;5093624;28;20909;-71
2021/03/18 09:47:26;;;;;;;19.60;14.93;;;7.50;84.60;;;;;;5093962;28;20431;-71
2021/03/18 09:49:54;;;;;;;17.80;15.90;;;7.60;83.50;;;;;;5093799;28;20459;-71
2021/03/18 09:52:24;;;;;;;21.33;14.77;;;7.70;82.90;;;;;;5094040;28;20438;-71
2021/03/18 09:54:51;;;;;;;19.33;14.27;;;7.80;81.50;;;;;;5093827;28;20428;-71
2021/03/18 09:57:18;;;;;;;18.10;14.43;;;7.70;80.40;;;;;;5093778;28;20472;-71
2021/03/18 09:59:50;;;;;;;20.03;12.57;;;7.60;80.20;;;;;;5093735;28;20608;-71
2021/03/18 10:02:18;;;;;;;12.80;10.90;;;7.60;78.80;;;;;;5093746;28;20427;-71
2021/03/18 10:04:45;;;;;;;14.30;10.43;;;7.60;78.00;;;;;;5093654;28;20803;-71
2021/03/18 10:07:13;;;;;;;19.87;10.20;;;7.70;78.30;;;;;;5093309;28;20451;-71
2021/03/18 10:09:41;;;;;;;14.90;9.77;;;7.80;78.70;;;;;;5093523;28;20992;-71
2021/03/18 10:12:09;;;;;;;15.00;10.80;;;7.70;77.20;;;;;;5093687;28;20464;-70
2021/03/18 10:14:40;;;;;;;14.60;9.47;;;7.80;78.30;;;;;;5093734;28;20424;-71
2021/03/18 10:17:09;;;;;;;14.43;8.83;;;7.80;79.10;;;;;;5093672;28;20428;-71
2021/03/18 10:19:39;;;;;;;17.30;13.77;;;7.70;77.10;;;;;;5093509;28;20424;-71
2021/03/18 10:22:06;;;;;;;22.70;16.87;;;7.80;77.60;;;;;;5093578;28;20774;-71
2021/03/18 10:24:33;;;;;;;34.73;22.13;;;7.70;77.90;;;;;;5093664;28;20432;-71
2021/03/18 10:27:11;;;;;;;33.07;24.10;;;7.70;77.80;;;;;;5093463;28;20432;-71
2021/03/18 10:29:38;;;;;;;32.40;22.37;;;7.60;78.80;;;;;;5093368;28;20849;-71
2021/03/18 10:32:10;;;;;;;32.43;23.43;;;7.60;78.40;;;;;;5093348;28;20490;-71
2021/03/18 10:34:36;;;;;;;28.83;22.03;;;7.70;79.10;;;;;;5093363;28;20485;-71
2021/03/18 10:37:02;;;;;;;24.70;19.37;;;7.70;78.30;;;;;;5093363;28;20466;-71
2021/03/18 10:39:29;;;;;;;23.50;19.00;;;7.70;77.70;;;;;;5092927;28;20999;-71
2021/03/18 10:41:58;;;;;;;22.47;16.80;;;7.70;77.10;;;;;;5093287;28;20435;-71
2021/03/18 10:44:35;;;;;;;23.27;16.27;;;7.70;75.80;;;;;;5093273;28;20443;-71
2021/03/18 10:47:16;;;;;;;20.70;16.60;;;7.60;75.30;;;;;;5093323;28;20433;-71
2021/03/18 10:49:57;;;;;;;24.73;16.13;;;7.80;77.30;;;;;;5093176;28;20491;-71
2021/03/18 10:52:23;;;;;;;21.40;15.00;;;7.80;75.80;;;;;;5093277;28;20420;-71
2021/03/18 10:54:54;;;;;;;19.47;14.47;;;8.00;75.90;;;;;;5095190;28;20416;-71
2021/03/18 10:57:20;;;;;;;19.73;16.00;;;8.10;75.70;;;;;;5097102;28;20431;-72
2021/03/18 10:59:54;;;;;;;20.60;15.70;;;8.20;75.90;;;;;;5096587;28;20829;-72
2021/03/18 11:02:23;;;;;;;19.70;14.13;;;8.30;75.60;;;;;;5096959;28;20423;-71
2021/03/18 11:04:52;;;;;;;16.90;14.00;;;8.60;74.80;;;;;;5096937;28;20497;-71
2021/03/18 11:07:18;;;;;;;17.90;15.67;;;8.70;74.60;;;;;;5096931;28;20424;-71
2021/03/18 11:09:44;;;;;;;12.67;11.33;;;8.80;73.80;;;;;;5096754;28;20463;-71
2021/03/18 11:12:10;;;;;;;11.83;10.27;;;9.20;73.50;;;;;;5096704;28;20442;-71
2021/03/18 11:14:36;;;;;;;10.03;8.20;;;9.50;72.50;;;;;;5096763;28;20443;-71
2021/03/18 11:17:04;;;;;;;13.33;8.27;;;10.10;68.60;;;;;;5096719;28;20435;-71
2021/03/18 11:19:31;;;;;;;9.27;5.60;;;10.40;66.00;;;;;;5096276;28;20940;-71
2021/03/18 11:22:02;;;;;;;9.10;5.47;;;10.50;63.00;;;;;;5096274;28;20953;-70
2021/03/18 11:24:29;;;;;;;8.03;5.33;;;10.50;62.00;;;;;;5096572;28;20537;-71
2021/03/18 11:26:58;;;;;;;7.87;5.90;;;10.40;61.00;;;;;;5096505;28;20447;-71
2021/03/18 11:29:26;;;;;;;6.63;5.27;;;10.50;63.10;;;;;;5096469;28;20454;-70
2021/03/18 11:31:54;;;;;;;7.70;6.00;;;10.50;62.40;;;;;;5096400;28;20463;-70
2021/03/18 11:34:22;;;;;;;13.13;4.70;;;10.60;61.80;;;;;;5096109;28;20428;-71
2021/03/18 11:36:51;;;;;;;5.90;4.60;;;10.60;61.40;;;;;;5096086;28;20811;-71
2021/03/18 11:39:19;;;;;;;6.23;4.33;;;10.60;59.80;;;;;;5096298;28;20447;-71
2021/03/18 11:41:45;;;;;;;7.73;4.50;;;10.50;60.50;;;;;;5096271;28;20443;-71
2021/03/18 11:44:14;;;;;;;5.50;4.43;;;10.50;63.20;;;;;;5096268;28;20428;-71
2021/03/18 11:46:40;;;;;;;6.17;4.03;;;10.60;61.50;;;;;;5096308;28;20439;-71
2021/03/18 11:49:06;;;;;;;7.50;4.27;;;10.30;60.60;;;;;;5096089;28;20443;-71
2021/03/18 11:51:33;;;;;;;7.63;4.90;;;10.20;60.60;;;;;;5095693;28;20969;-71
2021/03/18 11:54:00;;;;;;;6.30;4.40;;;10.30;61.30;;;;;;5096263;28;20447;-71
2021/03/18 11:56:28;;;;;;;5.50;4.20;;;10.40;61.70;;;;;;5096177;28;20443;-71
2021/03/18 11:58:54;;;;;;;3.93;3.47;;;10.40;60.50;;;;;;5095965;28;20505;-71
2021/03/18 12:01:20;;;;;;;6.13;3.53;;;10.50;60.70;;;;;;5095785;28;20467;-71
2021/03/18 12:03:47;;;;;;;8.90;3.80;;;10.60;61.40;;;;;;5095827;28;20444;-71
2021/03/18 12:06:13;;;;;;;5.93;4.23;;;10.50;60.10;;;;;;5095049;28;20509;-71
2021/03/18 12:08:39;;;;;;;9.87;5.77;;;10.30;61.20;;;;;;5095420;28;20937;-71
2021/03/18 12:11:06;;;;;;;7.90;4.33;;;10.20;62.10;;;;;;5095528;28;20532;-71
2021/03/18 12:13:33;;;;;;;4.70;3.60;;;10.00;61.10;;;;;;5095904;28;20439;-71
2021/03/18 12:15:59;;;;;;;9.67;4.50;;;9.90;63.60;;;;;;5095379;28;20424;-71
2021/03/18 12:18:26;;;;;;;9.07;3.97;;;9.80;64.10;;;;;;5095376;28;20928;-71
2021/03/18 12:20:53;;;;;;;3.93;3.40;;;9.80;64.50;;;;;;5100884;28;21000;-71
2021/03/18 12:23:20;;;;;;;4.17;3.30;;;9.70;63.30;;;;;;5095630;28;20846;-70
2021/03/18 12:25:46;;;;;;;4.27;3.53;;;9.50;64.30;;;;;;5095376;28;20473;-70
2021/03/18 12:28:13;;;;;;;7.17;3.60;;;9.50;65.40;;;;;;5095426;28;20428;-70
2021/03/18 12:30:41;;;;;;;5.60;3.93;;;9.50;66.80;;;;;;5095103;28;20479;-71
2021/03/18 12:33:07;;;;;;;8.00;3.87;;;9.40;66.00;;;;;;5095270;28;20428;-71
2021/03/18 12:35:34;;;;;;;5.87;4.10;;;9.40;67.40;;;;;;5095482;28;20440;-71
2021/03/18 12:38:00;;;;;;;7.07;4.17;;;9.40;65.80;;;;;;5095124;28;20818;-71
2021/03/18 12:40:26;;;;;;;8.00;4.03;;;9.50;66.50;;;;;;5095044;28;20459;-71
2021/03/18 12:42:52;;;;;;;6.27;3.97;;;9.70;67.40;;;;;;5095070;28;20428;-71
2021/03/18 12:45:20;;;;;;;6.20;4.00;;;9.80;67.20;;;;;;5094693;28;20937;-71
2021/03/18 12:47:46;;;;;;;4.30;3.70;;;9.90;65.70;;;;;;5094934;28;20836;-71
2021/03/18 12:50:15;;;;;;;4.97;3.80;;;9.90;63.80;;;;;;5094805;28;20463;-72
2021/03/18 12:52:42;;;;;;;9.43;3.83;;;9.90;63.70;;;;;;5094916;28;20431;-71
2021/03/18 12:55:10;;;;;;;5.60;3.80;;;9.90;64.30;;;;;;5094848;28;20440;-71
2021/03/18 12:57:39;;;;;;;5.40;3.20;;;10.00;63.20;;;;;;5094781;28;20456;-71
2021/03/18 13:00:07;;;;;;;5.37;4.00;;;10.00;63.60;;;;;;5094877;28;20471;-71